KBJJ/BJJ METAR and TAF weather

Enter ICAO airport designator
Station Type Date Time Source
KBJJ METAR 2019/04/19 21:56 UTC NOAA

KBJJ 192156Z AUTO 01011G18KT 3SM -RA BR BKN006 OVC029 05/04 A2960 RMK AO2 SLP024 P0002 T00500039


Station Type Date Time Source
KBJJ Decoded METAR 2019/04/19 21:56 UTC NOAA

WOOSTER WAYNE COUNTY AIRPORT, OH, United States (KBJJ) 40-52N 81-53W 343M
Apr 19, 2019 - 05:56 PM EDT / 2019.04.19 2156 UTC
Wind: from the N (010 degrees) at 13 MPH (11 KT) gusting to 21 MPH (18 KT):0
Visibility: 3 mile(s):0
Sky conditions: overcast
Weather: light rain; mist
Precipitation last hour: 0.02 inches
Temperature: 41.0 F (5.0 C)
Dew Point: 39.0 F (3.9 C)
Relative Humidity: 92%
Pressure (altimeter): 29.6 in. Hg (1002 hPa)
ob: KBJJ 192156Z AUTO 01011G18KT 3SM -RA BR BKN006 OVC029 05/04 A2960 RMK AO2 SLP024 P0002 T00500039
cycle: 22

Station Type Date Time Source
KBJJ TAF UTC NOAA

Error!

Example: see airport list